首页
METAR-TAF:

METAR-TAF

机场 :

海法, 以色列

纬度: 32-48N, 经度: 035-02E, 海拔: 8米

当前天气观测

该预报发布于10小时和24分钟前的16:50 UTC
风速12节,风向北转西北
温度 22°C
湿度 60%
气压 1013 hPa
能见度10公里或以上
1500米以下无云,无积雨云

METAR: LLHA 311650Z 34012KT CAVOK 22/14 Q1013

时间: 06:14 (03:14 UTC)

预报

该预报发布于4小时和13分钟前的23:01 UTC
预报有效从01日的 00点(UTC)到 01日的 24点(UTC)
风速4节,风向多变
能见度10公里或以上
散云层高于2500英尺
成为
从 01日的 07点(UTC)到 01日的 08点(UTC)
风速10节,风向西转西北
能见度10公里或以上
1500米以下无云,无积雨云
成为
从 01日的 15点(UTC)到 01日的 17点(UTC)
风速5节,风向

TAF: LLHA 312301Z 0100/0124 VRB04KT 9999 SCT025 BECMG 0107/0108 29010KT CAVOK BECMG 0115/0117 01005KT TX26/0111Z TN19/0103Z

超过4000个机场的气象观测和天气预报(METAR&TAF报告)。

可查询的气象台以黄色和红色小点在地图上表示。

将鼠标移到小点上方,可查看气象台名称。

然后点击查看天气观测和预报。

如需切换地图:点击带黑十字的绿色按钮放大地图;点击带横线的绿色按钮缩小地图;或者点击绿色箭头查看邻近地区的地图。


METAR-TAF: